createdAt,value
2023-02-15T00:02:07.758Z,3.60
2023-02-15T00:04:51.218Z,3.50
2023-02-15T00:07:20.582Z,3.40
2023-02-15T00:09:49.014Z,3.50
2023-02-15T00:12:18.648Z,3.50
2023-02-15T00:14:46.634Z,3.50
2023-02-15T00:17:14.480Z,3.40
2023-02-15T00:19:42.358Z,3.40
2023-02-15T00:22:10.814Z,3.40
2023-02-15T00:24:38.748Z,3.40
2023-02-15T00:27:06.678Z,3.40
2023-02-15T00:29:35.901Z,3.30
2023-02-15T00:32:03.832Z,3.30
2023-02-15T00:34:31.791Z,3.30
2023-02-15T00:36:59.922Z,3.30
2023-02-15T00:39:28.371Z,3.30
2023-02-15T00:41:56.214Z,3.30
2023-02-15T00:44:24.105Z,3.30
2023-02-15T00:46:53.427Z,3.30
2023-02-15T00:49:21.395Z,3.30
2023-02-15T00:51:49.369Z,3.20
2023-02-15T00:54:17.306Z,3.20
2023-02-15T00:56:45.232Z,3.20
2023-02-15T00:59:13.182Z,3.20
2023-02-15T01:01:41.150Z,3.20
2023-02-15T01:04:10.474Z,3.10
2023-02-15T01:06:38.449Z,3.10
2023-02-15T01:09:06.321Z,3.10
2023-02-15T01:11:34.226Z,3.00
2023-02-15T01:14:04.172Z,3.00
2023-02-15T01:16:32.196Z,3.00
2023-02-15T01:19:00.155Z,3.00
2023-02-15T01:21:29.995Z,3.00
2023-02-15T01:23:58.042Z,3.00
2023-02-15T01:26:25.914Z,3.00
2023-02-15T01:28:53.851Z,3.00
2023-02-15T01:31:23.001Z,3.00
2023-02-15T01:33:51.186Z,2.90
2023-02-15T01:36:19.114Z,2.90
2023-02-15T01:38:48.720Z,2.80
2023-02-15T01:41:24.097Z,2.80
2023-02-15T01:43:54.727Z,2.80
2023-02-15T01:46:28.300Z,2.80
2023-02-15T01:49:04.652Z,2.80
2023-02-15T01:51:35.350Z,2.80
2023-02-15T01:54:09.629Z,2.70
2023-02-15T01:56:39.961Z,2.70
2023-02-15T01:59:13.669Z,2.70
2023-02-15T02:01:41.828Z,2.60
2023-02-15T02:04:17.151Z,2.60
2023-02-15T02:06:48.586Z,2.60
2023-02-15T02:09:18.105Z,2.70
2023-02-15T02:11:48.461Z,2.60
2023-02-15T02:14:17.440Z,2.60
2023-02-15T02:16:54.143Z,2.60
2023-02-15T02:19:53.475Z,2.60
2023-02-15T02:22:56.839Z,2.60
2023-02-15T02:25:59.183Z,2.50
2023-02-15T02:28:57.597Z,2.50
2023-02-15T02:31:56.769Z,2.50
2023-02-15T02:34:30.994Z,2.40
2023-02-15T02:37:09.294Z,2.40
2023-02-15T02:39:47.759Z,2.40
2023-02-15T02:42:20.348Z,2.40
2023-02-15T02:44:51.616Z,2.40
2023-02-15T02:47:25.042Z,2.30
2023-02-15T02:50:01.198Z,2.30
2023-02-15T02:52:42.283Z,2.30
2023-02-15T02:55:15.225Z,2.30
2023-02-15T02:57:49.162Z,2.20
2023-02-15T03:00:19.262Z,2.20
2023-02-15T03:02:51.139Z,2.20
2023-02-15T03:05:26.760Z,2.20
2023-02-15T03:07:57.871Z,2.10
2023-02-15T03:10:26.494Z,2.10
2023-02-15T03:12:54.988Z,2.10
2023-02-15T03:15:26.541Z,2.10
2023-02-15T03:18:03.639Z,2.10
2023-02-15T03:20:35.674Z,2.10
2023-02-15T03:23:06.256Z,2.20
2023-02-15T03:25:37.014Z,2.20
2023-02-15T03:28:08.690Z,2.20
2023-02-15T03:30:38.071Z,2.20
2023-02-15T03:33:07.662Z,2.10
2023-02-15T03:35:45.056Z,2.10
2023-02-15T03:38:18.309Z,2.10
2023-02-15T03:41:05.613Z,2.00
2023-02-15T03:43:46.223Z,1.90
2023-02-15T03:46:21.522Z,1.90
2023-02-15T03:48:54.181Z,1.90
2023-02-15T03:51:36.336Z,1.90
2023-02-15T03:54:07.266Z,1.90
2023-02-15T03:56:37.056Z,1.90
2023-02-15T03:59:31.465Z,1.90
2023-02-15T04:02:12.547Z,1.80
2023-02-15T04:04:43.634Z,1.80
2023-02-15T04:07:13.056Z,1.70
2023-02-15T04:09:58.367Z,1.70
2023-02-15T04:12:26.406Z,1.70
2023-02-15T04:15:11.936Z,1.70
2023-02-15T04:17:40.221Z,1.70
2023-02-15T04:20:27.495Z,1.80
2023-02-15T04:23:14.369Z,1.80
2023-02-15T04:25:42.258Z,1.70
2023-02-15T04:28:10.213Z,1.70
2023-02-15T04:30:38.189Z,1.60
2023-02-15T04:33:06.084Z,1.60
2023-02-15T04:35:34.626Z,1.60
2023-02-15T04:38:03.949Z,1.60
2023-02-15T04:40:31.942Z,1.60
2023-02-15T04:42:59.840Z,1.60
2023-02-15T04:45:28.138Z,1.60
2023-02-15T04:47:56.149Z,1.50
2023-02-15T04:50:24.099Z,1.50
2023-02-15T04:52:51.997Z,1.40
2023-02-15T04:55:21.417Z,1.40
2023-02-15T04:57:49.338Z,1.40
2023-02-15T05:00:17.776Z,1.40
2023-02-15T05:02:45.698Z,1.30
2023-02-15T05:05:16.065Z,1.40
2023-02-15T05:07:43.955Z,1.40
2023-02-15T05:10:12.086Z,1.30
2023-02-15T05:12:41.416Z,1.30
2023-02-15T05:15:10.161Z,1.30
2023-02-15T05:17:38.113Z,1.30
2023-02-15T05:20:07.302Z,1.30
2023-02-15T05:22:35.294Z,1.30
2023-02-15T05:25:20.713Z,1.10
2023-02-15T05:28:07.381Z,1.10
2023-02-15T05:30:35.532Z,1.10
2023-02-15T05:33:03.511Z,1.10
2023-02-15T05:35:31.473Z,1.10
2023-02-15T05:37:59.414Z,1.00
2023-02-15T05:40:27.356Z,1.10
2023-02-15T05:42:57.734Z,1.10
2023-02-15T05:45:25.730Z,1.10
2023-02-15T05:47:53.742Z,1.20
2023-02-15T05:50:21.690Z,1.20
2023-02-15T05:52:52.274Z,1.20
2023-02-15T05:55:20.648Z,1.20
2023-02-15T05:57:48.722Z,1.20
2023-02-15T06:00:19.074Z,1.20
2023-02-15T06:02:47.006Z,1.20
2023-02-15T06:05:15.174Z,1.20
2023-02-15T06:07:45.486Z,1.20
2023-02-15T06:10:13.704Z,1.30
2023-02-15T06:12:41.672Z,1.30
2023-02-15T06:15:10.401Z,1.20
2023-02-15T06:17:39.807Z,1.20
2023-02-15T06:20:09.206Z,1.10
2023-02-15T06:22:37.155Z,1.10
2023-02-15T06:25:05.495Z,1.10
2023-02-15T06:27:33.363Z,1.00
2023-02-15T06:30:01.316Z,1.00
2023-02-15T06:32:29.438Z,1.00
2023-02-15T06:34:58.815Z,1.00
2023-02-15T06:37:26.889Z,0.90
2023-02-15T06:39:54.739Z,1.00
2023-02-15T06:42:23.326Z,1.00
2023-02-15T06:44:51.254Z,1.10
2023-02-15T06:47:19.202Z,1.10
2023-02-15T06:49:47.131Z,1.10
2023-02-15T06:52:16.493Z,1.00
2023-02-15T06:54:44.532Z,1.00
2023-02-15T06:57:12.563Z,1.00
2023-02-15T06:59:40.549Z,1.00
2023-02-15T07:02:08.450Z,1.00
2023-02-15T07:04:36.966Z,1.00
2023-02-15T07:07:05.556Z,1.00
2023-02-15T07:09:34.894Z,1.10
2023-02-15T07:12:20.006Z,1.10
2023-02-15T07:14:47.933Z,1.20
2023-02-15T07:17:35.015Z,1.20
2023-02-15T07:20:04.153Z,1.20
2023-02-15T07:22:32.059Z,1.20
2023-02-15T07:25:01.447Z,1.20
2023-02-15T07:27:29.399Z,1.30
2023-02-15T07:29:57.304Z,1.30
2023-02-15T07:32:25.180Z,1.20
2023-02-15T07:34:53.055Z,1.30
2023-02-15T07:37:20.994Z,1.30
2023-02-15T07:39:48.933Z,1.30
2023-02-15T07:42:18.856Z,1.40
2023-02-15T07:44:46.805Z,1.50
2023-02-15T07:47:14.682Z,1.60
2023-02-15T07:49:42.733Z,1.80
2023-02-15T07:52:10.694Z,1.90
2023-02-15T07:54:38.627Z,2.00
2023-02-15T07:57:06.799Z,2.20
2023-02-15T07:59:36.040Z,2.40
2023-02-15T08:02:03.885Z,2.70
2023-02-15T08:04:32.100Z,2.90
2023-02-15T08:07:00.026Z,3.10
2023-02-15T08:09:27.962Z,3.20
2023-02-15T08:11:55.843Z,3.20
2023-02-15T08:14:24.173Z,3.30
2023-02-15T08:16:56.727Z,3.40
2023-02-15T08:19:26.639Z,3.50
2023-02-15T08:21:57.837Z,3.60
2023-02-15T08:24:27.370Z,3.60
2023-02-15T08:26:55.982Z,3.70
2023-02-15T08:29:25.937Z,3.80
2023-02-15T08:31:59.710Z,3.90
2023-02-15T08:34:28.088Z,4.00
2023-02-15T08:36:56.071Z,4.10
2023-02-15T08:39:24.278Z,4.30
2023-02-15T08:41:52.336Z,4.70
2023-02-15T08:44:21.633Z,5.20
2023-02-15T08:46:50.638Z,5.70
2023-02-15T08:49:21.544Z,6.40
2023-02-15T08:51:50.549Z,7.30
2023-02-15T08:54:20.374Z,8.40
2023-02-15T08:56:48.955Z,9.80
2023-02-15T08:59:19.306Z,11.30
2023-02-15T09:01:49.561Z,12.80
2023-02-15T09:04:19.487Z,14.10
2023-02-15T09:06:49.585Z,15.10
2023-02-15T09:09:18.096Z,15.90
2023-02-15T09:11:48.891Z,16.40
2023-02-15T09:14:21.039Z,16.50
2023-02-15T09:16:52.518Z,16.30
2023-02-15T09:19:23.870Z,15.90
2023-02-15T09:21:52.481Z,15.40
2023-02-15T09:24:20.700Z,15.10
2023-02-15T09:26:50.424Z,14.90
2023-02-15T09:29:19.839Z,14.90
2023-02-15T09:31:49.987Z,15.10
2023-02-15T09:34:19.647Z,15.80
2023-02-15T09:36:49.620Z,16.60
2023-02-15T09:39:19.571Z,17.60
2023-02-15T09:42:10.163Z,18.90
2023-02-15T09:44:52.491Z,20.30
2023-02-15T09:47:52.315Z,21.70
2023-02-15T09:50:28.434Z,23.20
2023-02-15T09:53:17.291Z,24.40
2023-02-15T09:55:57.378Z,25.40
2023-02-15T09:58:38.575Z,26.20
2023-02-15T10:01:16.493Z,27.00
2023-02-15T10:04:00.343Z,27.70
2023-02-15T10:06:42.769Z,28.20
2023-02-15T10:09:22.056Z,28.70
2023-02-15T10:12:03.770Z,29.20
2023-02-15T10:14:57.234Z,29.70
2023-02-15T10:17:39.352Z,30.10
2023-02-15T10:20:20.022Z,30.60
2023-02-15T10:23:02.789Z,30.90
2023-02-15T10:25:42.357Z,31.30
2023-02-15T10:28:19.543Z,31.50
2023-02-15T10:30:51.481Z,31.80
2023-02-15T10:33:36.319Z,32.00
2023-02-15T10:36:13.835Z,32.10
2023-02-15T10:38:46.764Z,32.30
2023-02-15T10:41:29.239Z,32.50
2023-02-15T10:44:08.462Z,32.70
2023-02-15T10:46:54.528Z,33.00
2023-02-15T10:49:32.970Z,33.20
2023-02-15T10:52:15.911Z,33.50
2023-02-15T10:54:50.632Z,33.70
2023-02-15T10:57:28.328Z,33.90
2023-02-15T11:00:10.424Z,34.00
2023-02-15T11:02:54.081Z,34.00
2023-02-15T11:05:37.472Z,34.10
2023-02-15T11:08:09.075Z,34.20
2023-02-15T11:10:41.000Z,34.20
2023-02-15T11:13:15.635Z,34.30
2023-02-15T11:15:48.710Z,34.30
2023-02-15T11:18:21.139Z,34.10
2023-02-15T11:20:57.751Z,34.20
2023-02-15T11:23:27.045Z,34.30
2023-02-15T11:25:59.650Z,34.40
2023-02-15T11:28:33.238Z,34.50
2023-02-15T11:31:11.309Z,34.60
2023-02-15T11:33:45.268Z,34.70
2023-02-15T11:36:18.173Z,34.70
2023-02-15T11:38:49.630Z,34.70
2023-02-15T11:41:21.949Z,34.70
2023-02-15T11:43:56.337Z,34.70
2023-02-15T11:46:24.438Z,34.70
2023-02-15T11:48:52.570Z,34.80
2023-02-15T11:51:24.019Z,34.80
2023-02-15T11:53:53.700Z,34.80
2023-02-15T11:56:24.041Z,34.70
2023-02-15T11:58:57.809Z,34.50
2023-02-15T12:01:31.674Z,34.30
2023-02-15T12:04:02.981Z,33.90
2023-02-15T12:06:34.332Z,33.60
2023-02-15T12:09:07.402Z,33.10
2023-02-15T12:11:39.406Z,32.60
2023-02-15T12:14:16.701Z,32.00
2023-02-15T12:16:46.524Z,31.60
2023-02-15T12:19:29.882Z,30.90
2023-02-15T12:21:59.403Z,30.30
2023-02-15T12:24:31.812Z,29.60
2023-02-15T12:27:03.534Z,29.10
2023-02-15T12:29:38.347Z,28.50
2023-02-15T12:32:08.154Z,28.00
2023-02-15T12:34:42.216Z,27.50
2023-02-15T12:37:18.975Z,27.00
2023-02-15T12:39:56.235Z,26.40
2023-02-15T12:42:25.300Z,25.90
2023-02-15T12:45:00.745Z,25.60
2023-02-15T12:47:29.455Z,25.10
2023-02-15T12:50:12.645Z,24.70
2023-02-15T12:52:41.053Z,24.20
2023-02-15T12:55:19.933Z,23.70
2023-02-15T12:57:48.275Z,23.30
2023-02-15T13:00:32.917Z,22.90
2023-02-15T13:03:02.703Z,22.40
2023-02-15T13:05:35.560Z,22.00
2023-02-15T13:08:10.419Z,21.60
2023-02-15T13:10:42.516Z,21.30
2023-02-15T13:13:13.010Z,21.00
2023-02-15T13:15:45.980Z,20.70
2023-02-15T13:18:18.105Z,20.60
2023-02-15T13:20:47.066Z,20.40
2023-02-15T13:23:28.364Z,20.20
2023-02-15T13:26:00.011Z,20.10
2023-02-15T13:28:34.224Z,20.10
2023-02-15T13:31:03.862Z,20.00
2023-02-15T13:33:35.857Z,20.00
2023-02-15T13:36:10.511Z,19.90
2023-02-15T13:39:14.975Z,19.80
2023-02-15T13:41:53.389Z,19.80
2023-02-15T13:44:29.130Z,19.70
2023-02-15T13:47:07.907Z,19.60
2023-02-15T13:49:48.356Z,19.60
2023-02-15T13:52:22.443Z,19.60
2023-02-15T13:55:17.252Z,19.50
2023-02-15T13:58:09.066Z,19.50
2023-02-15T14:00:48.049Z,19.40
2023-02-15T14:03:50.627Z,19.40
2023-02-15T14:06:34.570Z,19.40
2023-02-15T14:09:15.074Z,19.30
2023-02-15T14:11:53.560Z,19.20
2023-02-15T14:14:35.251Z,19.10
2023-02-15T14:17:10.694Z,19.00
2023-02-15T14:19:47.009Z,19.00
2023-02-15T14:22:22.731Z,19.00
2023-02-15T14:25:05.128Z,18.90
2023-02-15T14:27:47.280Z,18.80
2023-02-15T14:30:20.402Z,18.60
2023-02-15T14:32:53.336Z,18.50
2023-02-15T14:35:25.776Z,18.40
2023-02-15T14:38:00.360Z,18.30
2023-02-15T14:40:57.700Z,18.20
2023-02-15T14:43:35.124Z,18.00
2023-02-15T14:46:10.342Z,17.90
2023-02-15T14:48:43.500Z,17.70
2023-02-15T14:51:33.243Z,17.50
2023-02-15T14:54:01.207Z,17.30
2023-02-15T14:56:29.788Z,17.10
2023-02-15T14:59:00.917Z,16.90
2023-02-15T15:01:31.577Z,16.70
2023-02-15T15:04:03.024Z,16.60
2023-02-15T15:06:34.792Z,16.40
2023-02-15T15:09:13.353Z,16.30
2023-02-15T15:11:49.115Z,16.10
2023-02-15T15:14:39.228Z,16.00
2023-02-15T15:17:08.296Z,15.90
2023-02-15T15:20:14.323Z,15.80
2023-02-15T15:22:45.203Z,15.60
2023-02-15T15:25:29.497Z,15.50
2023-02-15T15:27:57.818Z,15.40
2023-02-15T15:31:02.653Z,15.20
2023-02-15T15:34:17.956Z,15.10
2023-02-15T15:37:33.521Z,15.00
2023-02-15T15:40:36.547Z,14.80
2023-02-15T15:43:43.733Z,14.60
2023-02-15T15:46:38.121Z,14.40
2023-02-15T15:49:12.234Z,14.30
2023-02-15T15:51:43.313Z,14.10
2023-02-15T15:54:17.567Z,13.90
2023-02-15T15:56:50.624Z,13.70
2023-02-15T15:59:23.581Z,13.50
2023-02-15T16:01:51.796Z,13.40
2023-02-15T16:04:28.054Z,13.20
2023-02-15T16:06:55.965Z,13.10
2023-02-15T16:09:25.574Z,13.00
2023-02-15T16:11:56.220Z,12.80
2023-02-15T16:14:30.718Z,12.70
2023-02-15T16:17:01.461Z,12.60
2023-02-15T16:19:34.417Z,12.50
2023-02-15T16:22:05.542Z,12.40
2023-02-15T16:24:47.999Z,12.20
2023-02-15T16:27:42.592Z,12.10
2023-02-15T16:30:26.041Z,11.90
2023-02-15T16:33:04.842Z,11.80
2023-02-15T16:35:33.643Z,11.70
2023-02-15T16:38:02.091Z,11.50
2023-02-15T16:40:53.395Z,11.50
2023-02-15T16:43:27.146Z,11.30
2023-02-15T16:46:04.084Z,11.20
2023-02-15T16:48:32.863Z,11.10
2023-02-15T16:51:01.833Z,10.90
2023-02-15T16:53:32.477Z,10.80
2023-02-15T16:56:03.079Z,10.70
2023-02-15T16:58:46.222Z,10.60
2023-02-15T17:01:16.869Z,10.60
2023-02-15T17:03:45.016Z,10.50
2023-02-15T17:06:23.242Z,10.40
2023-02-15T17:08:51.411Z,10.30
2023-02-15T17:11:21.609Z,10.20
2023-02-15T17:14:21.830Z,10.10
2023-02-15T17:16:52.428Z,10.00
2023-02-15T17:19:25.164Z,9.90
2023-02-15T17:21:56.101Z,9.90
2023-02-15T17:24:33.568Z,9.80
2023-02-15T17:27:07.196Z,9.70
2023-02-15T17:29:39.428Z,9.70
2023-02-15T17:32:15.127Z,9.60
2023-02-15T17:34:53.023Z,9.50
2023-02-15T17:37:30.910Z,9.40
2023-02-15T17:40:00.486Z,9.40
2023-02-15T17:42:28.500Z,9.40
2023-02-15T17:44:57.743Z,9.30
2023-02-15T17:47:27.854Z,9.30
2023-02-15T17:49:56.154Z,9.30
2023-02-15T17:52:25.081Z,9.30
2023-02-15T17:55:10.226Z,9.20
2023-02-15T17:57:38.698Z,9.20
2023-02-15T18:00:26.984Z,9.10
2023-02-15T18:03:12.418Z,9.10
2023-02-15T18:05:57.899Z,9.00
2023-02-15T18:08:46.007Z,8.90
2023-02-15T18:11:31.957Z,8.80
2023-02-15T18:14:01.416Z,8.70
2023-02-15T18:16:34.207Z,8.70
2023-02-15T18:19:02.771Z,8.70
2023-02-15T18:21:30.827Z,8.60
2023-02-15T18:23:58.894Z,8.50
2023-02-15T18:26:28.472Z,8.50
2023-02-15T18:28:57.051Z,8.50
2023-02-15T18:31:25.757Z,8.50
2023-02-15T18:33:59.243Z,8.50
2023-02-15T18:36:29.727Z,8.40
2023-02-15T18:38:57.915Z,8.40
2023-02-15T18:41:26.090Z,8.30
2023-02-15T18:43:55.472Z,8.30
2023-02-15T18:46:23.354Z,8.20
2023-02-15T18:48:51.328Z,8.10
2023-02-15T18:51:22.501Z,8.10
2023-02-15T18:53:53.061Z,8.00
2023-02-15T18:56:23.455Z,8.00
2023-02-15T18:58:51.442Z,7.90
2023-02-15T19:01:21.197Z,7.80
2023-02-15T19:03:50.669Z,7.70
2023-02-15T19:06:23.059Z,7.70
2023-02-15T19:08:53.394Z,7.60
2023-02-15T19:11:23.611Z,7.60
2023-02-15T19:13:52.945Z,7.60
2023-02-15T19:16:31.840Z,7.50
2023-02-15T19:19:00.222Z,7.40
2023-02-15T19:21:32.823Z,7.40
2023-02-15T19:24:04.969Z,7.40
2023-02-15T19:26:44.846Z,7.40
2023-02-15T19:29:14.977Z,7.30
2023-02-15T19:31:43.377Z,7.30
2023-02-15T19:34:15.815Z,7.30
2023-02-15T19:36:47.701Z,7.30
2023-02-15T19:39:25.531Z,7.20
2023-02-15T19:41:53.695Z,7.10
2023-02-15T19:44:22.249Z,7.10
2023-02-15T19:46:50.391Z,7.00
2023-02-15T19:49:18.318Z,7.00
2023-02-15T19:51:47.792Z,7.00
2023-02-15T19:54:28.773Z,7.00
2023-02-15T19:56:56.741Z,7.00
2023-02-15T19:59:29.764Z,7.00
2023-02-15T20:01:58.634Z,6.90
2023-02-15T20:04:27.260Z,6.80
2023-02-15T20:07:00.418Z,6.80
2023-02-15T20:09:31.823Z,6.70
2023-02-15T20:11:59.744Z,6.70
2023-02-15T20:14:27.607Z,6.60
2023-02-15T20:16:55.541Z,6.50
2023-02-15T20:19:23.468Z,6.50
2023-02-15T20:21:54.680Z,6.50
2023-02-15T20:24:26.100Z,6.50
2023-02-15T20:26:53.978Z,6.50
2023-02-15T20:29:22.018Z,6.40
2023-02-15T20:31:50.139Z,6.40
2023-02-15T20:34:18.387Z,6.40
2023-02-15T20:36:46.282Z,6.40
2023-02-15T20:39:17.148Z,6.30
2023-02-15T20:41:48.356Z,6.30
2023-02-15T20:44:20.645Z,6.30
2023-02-15T20:46:48.875Z,6.20
2023-02-15T20:49:16.801Z,6.20
2023-02-15T20:51:46.901Z,6.10
2023-02-15T20:54:17.036Z,6.10
2023-02-15T20:56:46.818Z,6.00
2023-02-15T20:59:23.483Z,6.00
2023-02-15T21:01:52.735Z,5.90
2023-02-15T21:04:23.296Z,5.90
2023-02-15T21:06:51.144Z,5.90
2023-02-15T21:09:19.096Z,5.90
2023-02-15T21:11:49.936Z,5.80
2023-02-15T21:14:19.806Z,5.80
2023-02-15T21:16:49.657Z,5.80
2023-02-15T21:19:19.163Z,5.80
2023-02-15T21:21:47.770Z,5.70
2023-02-15T21:24:17.695Z,5.70
2023-02-15T21:26:47.982Z,5.70
2023-02-15T21:29:18.129Z,5.70
2023-02-15T21:31:46.751Z,5.70
2023-02-15T21:34:15.193Z,5.70
2023-02-15T21:36:44.035Z,5.60
2023-02-15T21:39:21.876Z,5.50
2023-02-15T21:42:12.527Z,5.40
2023-02-15T21:44:58.711Z,5.50
2023-02-15T21:47:45.399Z,5.40
2023-02-15T21:50:33.346Z,5.40
2023-02-15T21:53:01.591Z,5.40
2023-02-15T21:55:29.507Z,5.30
2023-02-15T21:57:58.940Z,5.30
2023-02-15T22:00:27.900Z,5.30
2023-02-15T22:02:58.217Z,5.30
2023-02-15T22:05:28.331Z,5.20
2023-02-15T22:07:57.245Z,5.20
2023-02-15T22:10:27.213Z,5.10
2023-02-15T22:12:55.889Z,5.20
2023-02-15T22:15:27.937Z,5.10
2023-02-15T22:17:56.350Z,5.10
2023-02-15T22:20:25.572Z,5.10
2023-02-15T22:22:54.263Z,5.10
2023-02-15T22:25:24.924Z,5.00
2023-02-15T22:27:54.839Z,5.00
2023-02-15T22:30:28.230Z,4.90
2023-02-15T22:32:57.383Z,4.80
2023-02-15T22:35:27.585Z,4.80
2023-02-15T22:37:55.636Z,4.70
2023-02-15T22:40:29.073Z,4.70
2023-02-15T22:42:59.465Z,4.70
2023-02-15T22:45:29.260Z,4.70
2023-02-15T22:47:59.724Z,4.60
2023-02-15T22:50:30.202Z,4.60
2023-02-15T22:53:00.145Z,4.60
2023-02-15T22:55:31.804Z,4.60
2023-02-15T22:58:00.567Z,4.60
2023-02-15T23:00:32.407Z,4.50
2023-02-15T23:03:00.544Z,4.50
2023-02-15T23:05:31.513Z,4.40
2023-02-15T23:08:00.637Z,4.40
2023-02-15T23:10:31.250Z,4.40
2023-02-15T23:13:17.957Z,4.40
2023-02-15T23:15:49.768Z,4.50
2023-02-15T23:18:20.454Z,4.40
2023-02-15T23:20:50.942Z,4.40
2023-02-15T23:23:28.879Z,4.50
2023-02-15T23:25:57.394Z,4.50
2023-02-15T23:28:28.574Z,4.50
2023-02-15T23:30:59.481Z,4.50
2023-02-15T23:33:32.204Z,4.50
2023-02-15T23:36:00.349Z,4.50
2023-02-15T23:38:31.166Z,4.40
2023-02-15T23:41:18.038Z,4.40
2023-02-15T23:43:50.059Z,4.40
2023-02-15T23:46:28.779Z,4.30
2023-02-15T23:48:57.702Z,4.30
2023-02-15T23:51:31.680Z,4.40
2023-02-15T23:53:59.919Z,4.40
2023-02-15T23:56:27.811Z,4.40
2023-02-15T23:58:55.849Z,4.30
